createdAt,value
2018-06-29T00:03:24.110Z,16.30
2018-06-29T00:08:18.589Z,16.20
2018-06-29T00:13:13.083Z,16.20
2018-06-29T00:18:07.513Z,16.30
2018-06-29T00:23:02.003Z,16.30
2018-06-29T00:27:56.505Z,16.30
2018-06-29T00:32:50.905Z,16.20
2018-06-29T00:37:45.384Z,16.20
2018-06-29T00:42:39.853Z,16.20
2018-06-29T00:47:34.504Z,16.20
2018-06-29T00:52:28.965Z,16.10
2018-06-29T00:57:23.459Z,16.20
2018-06-29T01:02:17.939Z,16.20
2018-06-29T01:07:12.397Z,16.10
2018-06-29T01:12:06.898Z,16.10
2018-06-29T01:17:01.445Z,16.10
2018-06-29T01:21:56.054Z,16.10
2018-06-29T01:26:51.173Z,16.20
2018-06-29T01:31:45.669Z,16.10
2018-06-29T01:36:40.140Z,16.00
2018-06-29T01:41:34.581Z,16.10
2018-06-29T01:46:29.080Z,16.10
2018-06-29T01:51:25.205Z,16.10
2018-06-29T01:56:19.723Z,16.10
2018-06-29T02:01:14.202Z,16.10
2018-06-29T02:06:08.705Z,16.00
2018-06-29T02:11:03.156Z,16.00
2018-06-29T02:20:51.872Z,15.90
2018-06-29T02:25:46.319Z,15.90
2018-06-29T02:30:40.884Z,15.90
2018-06-29T02:35:35.297Z,15.80
2018-06-29T02:40:30.918Z,15.80
2018-06-29T02:45:25.398Z,15.90
2018-06-29T02:50:19.929Z,15.90
2018-06-29T02:55:14.538Z,16.00
2018-06-29T03:00:09.276Z,16.10
2018-06-29T03:05:03.853Z,16.10
2018-06-29T03:09:58.334Z,16.10
2018-06-29T03:14:52.837Z,16.20
2018-06-29T03:19:47.328Z,16.20
2018-06-29T03:24:41.779Z,16.20
2018-06-29T03:29:36.290Z,16.20
2018-06-29T03:34:30.761Z,16.20
2018-06-29T03:39:25.256Z,16.20
2018-06-29T03:44:19.698Z,16.20
2018-06-29T03:49:15.234Z,16.20
2018-06-29T03:54:09.823Z,16.10
2018-06-29T03:59:04.386Z,16.20
2018-06-29T04:03:58.920Z,16.10
2018-06-29T04:08:53.424Z,16.20
2018-06-29T04:13:47.895Z,16.20
2018-06-29T04:18:42.427Z,16.30
2018-06-29T04:23:36.989Z,16.20
2018-06-29T04:28:31.535Z,16.20
2018-06-29T04:33:26.046Z,16.20
2018-06-29T04:38:20.553Z,16.20
2018-06-29T04:43:15.050Z,16.20
2018-06-29T04:48:09.476Z,16.30
2018-06-29T04:53:03.997Z,16.30
2018-06-29T04:57:58.580Z,16.30
2018-06-29T05:02:53.141Z,16.40
2018-06-29T05:07:47.634Z,16.40
2018-06-29T05:12:42.111Z,16.50
2018-06-29T05:17:36.624Z,16.50
2018-06-29T05:22:31.134Z,16.60
2018-06-29T05:27:25.680Z,16.60
2018-06-29T05:32:20.233Z,16.70
2018-06-29T05:37:14.754Z,16.70
2018-06-29T05:42:09.316Z,16.70
2018-06-29T05:47:03.864Z,16.60
2018-06-29T05:51:58.304Z,16.60
2018-06-29T05:56:52.824Z,16.70
2018-06-29T06:01:47.433Z,16.70
2018-06-29T06:06:42.029Z,16.80
2018-06-29T06:11:36.593Z,16.80
2018-06-29T06:16:31.081Z,16.90
2018-06-29T06:21:25.725Z,16.90
2018-06-29T06:26:20.855Z,17.00
2018-06-29T06:31:15.450Z,17.00
2018-06-29T06:36:10.060Z,17.10
2018-06-29T06:41:04.656Z,17.00
2018-06-29T06:46:06.146Z,17.00
2018-06-29T06:51:04.745Z,17.00
2018-06-29T06:55:59.480Z,17.20
2018-06-29T07:00:54.623Z,17.10
2018-06-29T07:05:49.296Z,17.20
2018-06-29T07:10:44.145Z,17.10
2018-06-29T07:15:38.844Z,17.20
2018-06-29T07:20:51.416Z,17.30
2018-06-29T07:25:45.990Z,17.30
2018-06-29T07:30:45.233Z,17.50
2018-06-29T07:35:39.785Z,17.60
2018-06-29T07:40:34.554Z,17.80
2018-06-29T07:45:38.415Z,17.90
2018-06-29T07:50:33.190Z,18.10
2018-06-29T08:00:22.461Z,18.70
2018-06-29T08:05:18.353Z,18.70
2018-06-29T08:10:13.164Z,18.90
2018-06-29T08:15:09.197Z,19.20
2018-06-29T08:20:03.807Z,19.60
2018-06-29T08:25:10.721Z,19.80
2018-06-29T08:30:07.779Z,19.80
2018-06-29T08:35:02.360Z,19.70
2018-06-29T08:40:02.435Z,19.80
2018-06-29T08:44:57.126Z,20.20
2018-06-29T08:49:52.325Z,20.30
2018-06-29T08:54:48.023Z,20.40
2018-06-29T08:59:43.328Z,20.20
2018-06-29T09:04:37.906Z,20.20
2018-06-29T09:09:32.566Z,20.70
2018-06-29T09:14:27.132Z,21.00
2018-06-29T09:19:21.646Z,21.10
2018-06-29T09:24:16.147Z,21.30
2018-06-29T09:29:10.705Z,21.60
2018-06-29T09:34:05.433Z,21.10
2018-06-29T09:38:59.989Z,21.30
2018-06-29T09:43:54.510Z,20.80
2018-06-29T09:48:49.009Z,20.40
2018-06-29T09:53:43.537Z,20.40
2018-06-29T09:58:38.188Z,20.70
2018-06-29T10:03:33.180Z,20.80
2018-06-29T10:08:29.764Z,20.50
2018-06-29T10:13:24.941Z,20.80
2018-06-29T10:18:19.687Z,20.40
2018-06-29T10:23:14.227Z,20.50
2018-06-29T10:28:08.938Z,20.60
2018-06-29T10:33:03.477Z,20.80
2018-06-29T10:37:58.833Z,21.00
2018-06-29T10:43:01.043Z,20.90
2018-06-29T10:47:55.516Z,20.80
2018-06-29T10:52:50.128Z,21.30
2018-06-29T10:57:44.623Z,21.80
2018-06-29T11:02:39.709Z,21.90
2018-06-29T11:07:34.323Z,21.70
2018-06-29T11:12:30.940Z,21.30
2018-06-29T11:17:25.536Z,21.40
2018-06-29T11:22:20.048Z,21.60
2018-06-29T11:27:14.577Z,21.70
2018-06-29T11:32:09.426Z,22.30
2018-06-29T11:37:07.301Z,22.60
2018-06-29T11:42:01.811Z,22.60
2018-06-29T11:47:03.498Z,22.50
2018-06-29T11:51:58.164Z,22.60
2018-06-29T11:56:52.700Z,22.30
2018-06-29T12:01:47.312Z,22.60
2018-06-29T12:06:41.821Z,22.60
2018-06-29T12:11:36.447Z,22.90
2018-06-29T12:16:30.948Z,23.00
2018-06-29T12:21:25.531Z,23.10
2018-06-29T12:26:20.034Z,23.30
2018-06-29T12:31:14.577Z,23.60
2018-06-29T12:36:15.337Z,23.70
2018-06-29T12:41:09.923Z,23.70
2018-06-29T12:46:04.506Z,23.90
2018-06-29T12:50:58.932Z,24.00
2018-06-29T12:55:53.489Z,23.90
2018-06-29T13:00:48.019Z,24.10
2018-06-29T13:05:43.676Z,24.20
2018-06-29T13:10:38.253Z,24.40
2018-06-29T13:15:33.614Z,24.90
2018-06-29T13:20:28.521Z,24.90
2018-06-29T13:25:23.077Z,25.10
2018-06-29T13:30:17.625Z,25.30
2018-06-29T13:35:12.091Z,25.30
2018-06-29T13:40:06.923Z,25.10
2018-06-29T13:45:01.441Z,25.30
2018-06-29T13:49:56.009Z,25.40
2018-06-29T13:54:50.527Z,25.70
2018-06-29T13:59:46.124Z,25.80
2018-06-29T14:04:40.630Z,25.60
2018-06-29T14:09:35.116Z,25.40
2018-06-29T14:14:29.686Z,25.40
2018-06-29T14:19:24.241Z,25.40
2018-06-29T14:24:18.696Z,25.70
2018-06-29T14:29:13.397Z,25.70
2018-06-29T14:34:07.956Z,25.60
2018-06-29T14:39:02.532Z,25.60
2018-06-29T14:43:57.137Z,25.60
2018-06-29T14:48:51.746Z,25.80
2018-06-29T14:53:46.233Z,25.60
2018-06-29T14:58:40.767Z,25.40
2018-06-29T15:03:35.277Z,25.70
2018-06-29T15:08:29.784Z,25.90
2018-06-29T15:13:24.510Z,26.10
2018-06-29T15:18:18.977Z,25.80
2018-06-29T15:23:13.613Z,25.40
2018-06-29T15:28:08.500Z,25.70
2018-06-29T15:33:04.862Z,25.80
2018-06-29T15:37:59.884Z,25.70
2018-06-29T15:42:54.921Z,25.70
2018-06-29T15:47:49.448Z,25.70
2018-06-29T15:52:44.068Z,25.70
2018-06-29T15:57:39.130Z,25.90
2018-06-29T16:02:33.990Z,25.40
2018-06-29T16:07:28.871Z,25.50
2018-06-29T16:12:23.548Z,25.80
2018-06-29T16:17:18.380Z,25.50
2018-06-29T16:22:14.426Z,25.30
2018-06-29T16:27:09.060Z,25.50
2018-06-29T16:32:03.634Z,25.60
2018-06-29T16:36:58.719Z,25.70
2018-06-29T16:46:47.831Z,25.40
2018-06-29T16:51:42.894Z,25.40
2018-06-29T16:56:37.581Z,25.20
2018-06-29T17:01:32.229Z,25.20
2018-06-29T17:06:27.002Z,25.10
2018-06-29T17:11:21.857Z,25.20
2018-06-29T17:16:16.453Z,25.10
2018-06-29T17:21:11.064Z,25.20
2018-06-29T17:26:05.652Z,25.20
2018-06-29T17:31:00.474Z,25.00
2018-06-29T17:35:58.348Z,24.90
2018-06-29T17:40:53.377Z,24.70
2018-06-29T17:45:47.996Z,24.60
2018-06-29T17:50:42.719Z,24.60
2018-06-29T17:55:37.988Z,24.70
2018-06-29T18:00:32.612Z,24.70
2018-06-29T18:05:27.303Z,24.90
2018-06-29T18:10:22.073Z,24.70
2018-06-29T18:15:17.441Z,24.70
2018-06-29T18:20:12.507Z,24.50
2018-06-29T18:25:08.107Z,24.50
2018-06-29T18:30:03.101Z,24.40
2018-06-29T18:34:59.048Z,24.50
2018-06-29T18:39:54.280Z,24.20
2018-06-29T18:44:49.645Z,24.10
2018-06-29T18:49:44.784Z,24.10
2018-06-29T18:54:40.180Z,23.90
2018-06-29T19:04:29.579Z,24.10
2018-06-29T19:09:24.477Z,23.90
2018-06-29T19:14:19.388Z,23.90
2018-06-29T19:19:14.469Z,23.70
2018-06-29T19:24:09.258Z,23.30
2018-06-29T19:29:04.256Z,23.00
2018-06-29T19:34:00.007Z,22.90
2018-06-29T19:38:55.171Z,22.80
2018-06-29T19:43:50.239Z,22.70
2018-06-29T19:48:45.733Z,22.60
2018-06-29T19:53:41.442Z,22.50
2018-06-29T19:58:36.286Z,22.40
2018-06-29T20:03:32.517Z,22.30
2018-06-29T20:08:27.332Z,22.20
2018-06-29T20:18:17.189Z,22.10
2018-06-29T20:23:11.870Z,22.00
2018-06-29T20:28:07.508Z,21.90
2018-06-29T20:33:02.424Z,21.90
2018-06-29T20:37:57.409Z,21.80
2018-06-29T20:42:52.025Z,21.70
2018-06-29T20:47:46.709Z,21.70
2018-06-29T20:52:41.462Z,21.70
2018-06-29T20:57:36.199Z,21.60
2018-06-29T21:02:31.445Z,21.60
2018-06-29T21:07:25.999Z,21.50
2018-06-29T21:12:22.707Z,21.40
2018-06-29T21:17:20.804Z,21.40
2018-06-29T21:22:16.165Z,21.30
2018-06-29T21:27:11.441Z,21.30
2018-06-29T21:32:06.842Z,21.20
2018-06-29T21:37:02.314Z,21.20
2018-06-29T21:46:52.525Z,21.20
2018-06-29T21:51:47.857Z,21.10
2018-06-29T21:56:43.425Z,21.00
2018-06-29T22:01:38.709Z,21.00
2018-06-29T22:11:29.133Z,20.90
2018-06-29T22:16:24.493Z,20.90
2018-06-29T22:21:19.857Z,20.80
2018-06-29T22:31:09.993Z,20.60
2018-06-29T22:36:05.252Z,20.50
2018-06-29T22:41:00.427Z,20.50
2018-06-29T22:45:56.212Z,20.50
2018-06-29T22:50:51.685Z,20.40
2018-06-29T22:55:46.901Z,20.20
2018-06-29T23:00:42.256Z,20.00
2018-06-29T23:05:37.599Z,19.90
2018-06-29T23:10:32.743Z,19.70
2018-06-29T23:15:27.972Z,19.70
2018-06-29T23:20:23.133Z,19.50
2018-06-29T23:25:18.484Z,19.50
2018-06-29T23:30:13.691Z,19.40
2018-06-29T23:35:08.947Z,19.30
2018-06-29T23:40:04.275Z,19.20
2018-06-29T23:44:59.714Z,19.00
2018-06-29T23:49:54.790Z,19.00
2018-06-29T23:54:50.231Z,18.90
2018-06-29T23:59:45.404Z,18.80
